sensor_id;sensor_type;location;lat;lon;timestamp;P1;durP1;ratioP1;P2;durP2;ratioP2
42036;SDS011;75222;52.004;5.908;2024-02-26T00:01:48;1.63;;;1.52;;
42036;SDS011;75222;52.004;5.908;2024-02-26T00:04:14;3.20;;;1.90;;
42036;SDS011;75222;52.004;5.908;2024-02-26T00:06:39;2.28;;;1.80;;
42036;SDS011;75222;52.004;5.908;2024-02-26T00:09:08;3.15;;;2.10;;
42036;SDS011;75222;52.004;5.908;2024-02-26T00:11:37;2.70;;;1.98;;
42036;SDS011;75222;52.004;5.908;2024-02-26T00:14:03;3.33;;;2.50;;
42036;SDS011;75222;52.004;5.908;2024-02-26T00:16:28;2.55;;;2.00;;
42036;SDS011;75222;52.004;5.908;2024-02-26T00:18:54;3.50;;;2.33;;
42036;SDS011;75222;52.004;5.908;2024-02-26T00:21:20;3.42;;;2.60;;
42036;SDS011;75222;52.004;5.908;2024-02-26T00:23:45;3.38;;;2.20;;
42036;SDS011;75222;52.004;5.908;2024-02-26T00:26:11;2.63;;;2.22;;
42036;SDS011;75222;52.004;5.908;2024-02-26T00:28:37;2.47;;;1.88;;
42036;SDS011;75222;52.004;5.908;2024-02-26T00:31:02;4.22;;;2.20;;
42036;SDS011;75222;52.004;5.908;2024-02-26T00:33:28;3.33;;;2.35;;
42036;SDS011;75222;52.004;5.908;2024-02-26T00:35:54;3.25;;;1.95;;
42036;SDS011;75222;52.004;5.908;2024-02-26T00:38:20;4.00;;;2.40;;
42036;SDS011;75222;52.004;5.908;2024-02-26T00:40:45;2.75;;;2.00;;
42036;SDS011;75222;52.004;5.908;2024-02-26T00:43:11;2.20;;;1.90;;
42036;SDS011;75222;52.004;5.908;2024-02-26T00:45:36;2.28;;;1.73;;
42036;SDS011;75222;52.004;5.908;2024-02-26T00:48:02;1.95;;;1.85;;
42036;SDS011;75222;52.004;5.908;2024-02-26T00:50:30;1.70;;;1.60;;
42036;SDS011;75222;52.004;5.908;2024-02-26T00:52:56;1.70;;;1.60;;
42036;SDS011;75222;52.004;5.908;2024-02-26T00:55:22;1.50;;;1.40;;
42036;SDS011;75222;52.004;5.908;2024-02-26T00:57:47;1.90;;;1.67;;
42036;SDS011;75222;52.004;5.908;2024-02-26T01:00:13;3.00;;;1.90;;
42036;SDS011;75222;52.004;5.908;2024-02-26T01:02:39;2.83;;;2.20;;
42036;SDS011;75222;52.004;5.908;2024-02-26T01:05:06;2.80;;;2.05;;
42036;SDS011;75222;52.004;5.908;2024-02-26T01:07:34;2.10;;;1.88;;
42036;SDS011;75222;52.004;5.908;2024-02-26T01:10:01;2.60;;;2.00;;
42036;SDS011;75222;52.004;5.908;2024-02-26T01:12:28;2.05;;;1.70;;
42036;SDS011;75222;52.004;5.908;2024-02-26T01:14:53;2.38;;;1.80;;
42036;SDS011;75222;52.004;5.908;2024-02-26T01:17:19;2.30;;;1.88;;
42036;SDS011;75222;52.004;5.908;2024-02-26T01:19:45;2.80;;;1.80;;
42036;SDS011;75222;52.004;5.908;2024-02-26T01:22:11;2.00;;;1.80;;
42036;SDS011;75222;52.004;5.908;2024-02-26T01:24:36;2.05;;;1.85;;
42036;SDS011;75222;52.004;5.908;2024-02-26T01:27:02;2.63;;;2.42;;
42036;SDS011;75222;52.004;5.908;2024-02-26T01:29:28;2.30;;;1.90;;
42036;SDS011;75222;52.004;5.908;2024-02-26T01:31:54;2.83;;;2.22;;
42036;SDS011;75222;52.004;5.908;2024-02-26T01:34:20;2.72;;;2.10;;
42036;SDS011;75222;52.004;5.908;2024-02-26T01:36:45;2.05;;;1.85;;
42036;SDS011;75222;52.004;5.908;2024-02-26T01:39:11;2.20;;;2.00;;
42036;SDS011;75222;52.004;5.908;2024-02-26T01:41:37;3.05;;;2.20;;
42036;SDS011;75222;52.004;5.908;2024-02-26T01:44:03;2.65;;;2.33;;
42036;SDS011;75222;52.004;5.908;2024-02-26T01:46:29;2.55;;;2.20;;
42036;SDS011;75222;52.004;5.908;2024-02-26T01:48:55;4.40;;;3.10;;
42036;SDS011;75222;52.004;5.908;2024-02-26T01:51:21;3.60;;;2.92;;
42036;SDS011;75222;52.004;5.908;2024-02-26T01:53:47;3.53;;;2.72;;
42036;SDS011;75222;52.004;5.908;2024-02-26T01:56:13;3.58;;;2.70;;
42036;SDS011;75222;52.004;5.908;2024-02-26T01:58:40;4.22;;;3.10;;
42036;SDS011;75222;52.004;5.908;2024-02-26T02:01:07;2.75;;;2.20;;
42036;SDS011;75222;52.004;5.908;2024-02-26T02:03:32;1.90;;;1.70;;
42036;SDS011;75222;52.004;5.908;2024-02-26T02:05:58;3.83;;;2.50;;
42036;SDS011;75222;52.004;5.908;2024-02-26T02:08:24;5.43;;;3.25;;
42036;SDS011;75222;52.004;5.908;2024-02-26T02:10:50;3.17;;;2.58;;
42036;SDS011;75222;52.004;5.908;2024-02-26T02:13:16;4.05;;;3.38;;
42036;SDS011;75222;52.004;5.908;2024-02-26T02:15:41;4.25;;;2.92;;
42036;SDS011;75222;52.004;5.908;2024-02-26T02:18:07;2.92;;;2.42;;
42036;SDS011;75222;52.004;5.908;2024-02-26T02:20:33;3.50;;;2.45;;
42036;SDS011;75222;52.004;5.908;2024-02-26T02:22:59;4.80;;;2.53;;
42036;SDS011;75222;52.004;5.908;2024-02-26T02:25:25;4.15;;;2.33;;
42036;SDS011;75222;52.004;5.908;2024-02-26T02:27:51;2.78;;;2.30;;
42036;SDS011;75222;52.004;5.908;2024-02-26T02:30:19;2.60;;;1.90;;
42036;SDS011;75222;52.004;5.908;2024-02-26T02:32:46;2.30;;;1.80;;
42036;SDS011;75222;52.004;5.908;2024-02-26T02:35:12;2.50;;;2.10;;
42036;SDS011;75222;52.004;5.908;2024-02-26T02:37:37;2.25;;;2.00;;
42036;SDS011;75222;52.004;5.908;2024-02-26T02:40:03;3.80;;;2.50;;
42036;SDS011;75222;52.004;5.908;2024-02-26T02:42:30;3.38;;;2.70;;
42036;SDS011;75222;52.004;5.908;2024-02-26T02:44:55;3.67;;;2.50;;
42036;SDS011;75222;52.004;5.908;2024-02-26T02:47:21;3.10;;;2.45;;
42036;SDS011;75222;52.004;5.908;2024-02-26T02:49:46;2.10;;;1.90;;
42036;SDS011;75222;52.004;5.908;2024-02-26T02:52:12;2.60;;;2.00;;
42036;SDS011;75222;52.004;5.908;2024-02-26T02:54:37;2.05;;;1.85;;
42036;SDS011;75222;52.004;5.908;2024-02-26T02:57:05;2.03;;;1.67;;
42036;SDS011;75222;52.004;5.908;2024-02-26T02:59:31;2.92;;;2.20;;
42036;SDS011;75222;52.004;5.908;2024-02-26T03:01:56;2.25;;;1.90;;
42036;SDS011;75222;52.004;5.908;2024-02-26T03:04:22;2.42;;;2.10;;
42036;SDS011;75222;52.004;5.908;2024-02-26T03:06:47;3.17;;;2.40;;
42036;SDS011;75222;52.004;5.908;2024-02-26T03:09:13;2.80;;;2.10;;
42036;SDS011;75222;52.004;5.908;2024-02-26T03:11:38;2.90;;;2.05;;
42036;SDS011;75222;52.004;5.908;2024-02-26T03:14:04;2.33;;;1.92;;
42036;SDS011;75222;52.004;5.908;2024-02-26T03:16:31;2.10;;;1.90;;
42036;SDS011;75222;52.004;5.908;2024-02-26T03:18:57;2.88;;;2.10;;
42036;SDS011;75222;52.004;5.908;2024-02-26T03:21:23;3.10;;;2.10;;
42036;SDS011;75222;52.004;5.908;2024-02-26T03:23:50;3.70;;;2.50;;
42036;SDS011;75222;52.004;5.908;2024-02-26T03:26:16;2.92;;;2.20;;
42036;SDS011;75222;52.004;5.908;2024-02-26T03:28:41;2.70;;;2.10;;
42036;SDS011;75222;52.004;5.908;2024-02-26T03:31:07;2.90;;;2.22;;
42036;SDS011;75222;52.004;5.908;2024-02-26T03:33:33;2.92;;;2.05;;
42036;SDS011;75222;52.004;5.908;2024-02-26T03:35:59;2.95;;;2.30;;
42036;SDS011;75222;52.004;5.908;2024-02-26T03:38:24;2.38;;;1.90;;
42036;SDS011;75222;52.004;5.908;2024-02-26T03:40:50;2.65;;;2.20;;
42036;SDS011;75222;52.004;5.908;2024-02-26T03:43:16;2.75;;;1.90;;
42036;SDS011;75222;52.004;5.908;2024-02-26T03:45:42;2.28;;;2.03;;
42036;SDS011;75222;52.004;5.908;2024-02-26T03:48:07;4.63;;;2.50;;
42036;SDS011;75222;52.004;5.908;2024-02-26T03:50:33;2.67;;;2.22;;
42036;SDS011;75222;52.004;5.908;2024-02-26T03:52:59;3.15;;;2.25;;
42036;SDS011;75222;52.004;5.908;2024-02-26T03:55:25;2.75;;;1.98;;
42036;SDS011;75222;52.004;5.908;2024-02-26T03:57:53;2.25;;;1.80;;
42036;SDS011;75222;52.004;5.908;2024-02-26T04:00:19;2.50;;;2.28;;
42036;SDS011;75222;52.004;5.908;2024-02-26T04:02:46;3.50;;;2.50;;
42036;SDS011;75222;52.004;5.908;2024-02-26T04:05:12;3.20;;;2.50;;
42036;SDS011;75222;52.004;5.908;2024-02-26T04:07:39;6.22;;;2.67;;
42036;SDS011;75222;52.004;5.908;2024-02-26T04:10:09;4.55;;;3.08;;
42036;SDS011;75222;52.004;5.908;2024-02-26T04:12:35;3.88;;;2.90;;
42036;SDS011;75222;52.004;5.908;2024-02-26T04:15:04;3.78;;;3.03;;
42036;SDS011;75222;52.004;5.908;2024-02-26T04:17:30;3.58;;;2.80;;
42036;SDS011;75222;52.004;5.908;2024-02-26T04:19:56;4.03;;;3.17;;
42036;SDS011;75222;52.004;5.908;2024-02-26T04:22:21;3.83;;;2.92;;
42036;SDS011;75222;52.004;5.908;2024-02-26T04:24:47;4.35;;;3.08;;
42036;SDS011;75222;52.004;5.908;2024-02-26T04:27:12;6.03;;;3.03;;
42036;SDS011;75222;52.004;5.908;2024-02-26T04:29:38;4.25;;;3.20;;
42036;SDS011;75222;52.004;5.908;2024-02-26T04:32:03;4.43;;;3.38;;
42036;SDS011;75222;52.004;5.908;2024-02-26T04:34:30;4.18;;;3.05;;
42036;SDS011;75222;52.004;5.908;2024-02-26T04:36:56;4.45;;;3.25;;
42036;SDS011;75222;52.004;5.908;2024-02-26T04:39:21;3.95;;;2.88;;
42036;SDS011;75222;52.004;5.908;2024-02-26T04:41:47;4.00;;;3.08;;
42036;SDS011;75222;52.004;5.908;2024-02-26T04:44:12;4.65;;;2.60;;
42036;SDS011;75222;52.004;5.908;2024-02-26T04:46:38;3.85;;;2.80;;
42036;SDS011;75222;52.004;5.908;2024-02-26T04:49:03;4.50;;;3.10;;
42036;SDS011;75222;52.004;5.908;2024-02-26T04:51:29;3.60;;;2.65;;
42036;SDS011;75222;52.004;5.908;2024-02-26T04:53:54;4.82;;;3.00;;
42036;SDS011;75222;52.004;5.908;2024-02-26T04:56:20;4.07;;;3.08;;
42036;SDS011;75222;52.004;5.908;2024-02-26T04:58:46;4.30;;;2.90;;
42036;SDS011;75222;52.004;5.908;2024-02-26T05:01:13;5.03;;;3.25;;
42036;SDS011;75222;52.004;5.908;2024-02-26T05:03:38;4.00;;;2.90;;
42036;SDS011;75222;52.004;5.908;2024-02-26T05:06:04;4.18;;;2.88;;
42036;SDS011;75222;52.004;5.908;2024-02-26T05:08:30;4.15;;;2.85;;
42036;SDS011;75222;52.004;5.908;2024-02-26T05:10:56;4.82;;;3.00;;
42036;SDS011;75222;52.004;5.908;2024-02-26T05:13:21;4.15;;;3.20;;
42036;SDS011;75222;52.004;5.908;2024-02-26T05:15:47;5.18;;;3.30;;
42036;SDS011;75222;52.004;5.908;2024-02-26T05:18:14;5.63;;;3.35;;
42036;SDS011;75222;52.004;5.908;2024-02-26T05:20:40;3.92;;;3.00;;
42036;SDS011;75222;52.004;5.908;2024-02-26T05:23:06;3.78;;;2.80;;
42036;SDS011;75222;52.004;5.908;2024-02-26T05:25:31;4.32;;;3.20;;
42036;SDS011;75222;52.004;5.908;2024-02-26T05:27:57;4.90;;;3.70;;
42036;SDS011;75222;52.004;5.908;2024-02-26T05:30:22;5.10;;;3.33;;
42036;SDS011;75222;52.004;5.908;2024-02-26T05:32:48;5.97;;;3.70;;
42036;SDS011;75222;52.004;5.908;2024-02-26T05:35:13;5.68;;;4.00;;
42036;SDS011;75222;52.004;5.908;2024-02-26T05:37:40;4.47;;;3.22;;
42036;SDS011;75222;52.004;5.908;2024-02-26T05:40:06;4.38;;;3.38;;
42036;SDS011;75222;52.004;5.908;2024-02-26T05:42:32;5.10;;;3.47;;
42036;SDS011;75222;52.004;5.908;2024-02-26T05:44:58;3.97;;;2.90;;
42036;SDS011;75222;52.004;5.908;2024-02-26T05:47:24;6.47;;;3.10;;
42036;SDS011;75222;52.004;5.908;2024-02-26T05:49:49;4.00;;;3.15;;
42036;SDS011;75222;52.004;5.908;2024-02-26T05:52:15;4.20;;;3.10;;
42036;SDS011;75222;52.004;5.908;2024-02-26T05:54:40;3.88;;;3.03;;
42036;SDS011;75222;52.004;5.908;2024-02-26T05:57:06;4.70;;;3.35;;
42036;SDS011;75222;52.004;5.908;2024-02-26T05:59:31;4.15;;;3.00;;
42036;SDS011;75222;52.004;5.908;2024-02-26T06:01:57;4.45;;;3.10;;
42036;SDS011;75222;52.004;5.908;2024-02-26T06:04:22;4.80;;;3.17;;
42036;SDS011;75222;52.004;5.908;2024-02-26T06:06:48;4.38;;;3.05;;
42036;SDS011;75222;52.004;5.908;2024-02-26T06:09:14;3.63;;;2.70;;
42036;SDS011;75222;52.004;5.908;2024-02-26T06:11:40;4.45;;;3.17;;
42036;SDS011;75222;52.004;5.908;2024-02-26T06:14:05;3.67;;;2.72;;
42036;SDS011;75222;52.004;5.908;2024-02-26T06:16:31;4.22;;;3.20;;
42036;SDS011;75222;52.004;5.908;2024-02-26T06:18:56;4.10;;;3.10;;
42036;SDS011;75222;52.004;5.908;2024-02-26T06:21:25;3.55;;;2.70;;
42036;SDS011;75222;52.004;5.908;2024-02-26T06:23:51;4.82;;;3.30;;
42036;SDS011;75222;52.004;5.908;2024-02-26T06:26:16;4.60;;;3.28;;
42036;SDS011;75222;52.004;5.908;2024-02-26T06:28:42;4.75;;;3.40;;
42036;SDS011;75222;52.004;5.908;2024-02-26T06:31:07;4.25;;;3.03;;
42036;SDS011;75222;52.004;5.908;2024-02-26T06:33:33;3.78;;;2.92;;
42036;SDS011;75222;52.004;5.908;2024-02-26T06:35:59;4.13;;;3.10;;
42036;SDS011;75222;52.004;5.908;2024-02-26T06:38:24;5.05;;;3.40;;
42036;SDS011;75222;52.004;5.908;2024-02-26T06:40:50;3.97;;;2.90;;
42036;SDS011;75222;52.004;5.908;2024-02-26T06:43:15;4.55;;;3.30;;
42036;SDS011;75222;52.004;5.908;2024-02-26T06:45:41;4.22;;;3.05;;
42036;SDS011;75222;52.004;5.908;2024-02-26T06:48:06;4.85;;;2.90;;
42036;SDS011;75222;52.004;5.908;2024-02-26T06:50:32;4.07;;;3.05;;
42036;SDS011;75222;52.004;5.908;2024-02-26T06:52:58;5.03;;;3.35;;
42036;SDS011;75222;52.004;5.908;2024-02-26T06:55:23;4.32;;;2.90;;
42036;SDS011;75222;52.004;5.908;2024-02-26T06:57:49;4.18;;;3.05;;
42036;SDS011;75222;52.004;5.908;2024-02-26T07:00:14;4.53;;;3.40;;
42036;SDS011;75222;52.004;5.908;2024-02-26T07:02:41;4.78;;;3.50;;
42036;SDS011;75222;52.004;5.908;2024-02-26T07:05:07;5.07;;;3.53;;
42036;SDS011;75222;52.004;5.908;2024-02-26T07:07:34;4.97;;;3.60;;
42036;SDS011;75222;52.004;5.908;2024-02-26T07:09:59;5.20;;;3.47;;
42036;SDS011;75222;52.004;5.908;2024-02-26T07:12:28;5.25;;;3.10;;
42036;SDS011;75222;52.004;5.908;2024-02-26T07:14:54;5.15;;;3.42;;
42036;SDS011;75222;52.004;5.908;2024-02-26T07:17:20;4.70;;;3.47;;
42036;SDS011;75222;52.004;5.908;2024-02-26T07:19:45;6.00;;;4.03;;
42036;SDS011;75222;52.004;5.908;2024-02-26T07:22:11;6.60;;;4.55;;
42036;SDS011;75222;52.004;5.908;2024-02-26T07:24:36;6.03;;;4.13;;
42036;SDS011;75222;52.004;5.908;2024-02-26T07:27:02;5.05;;;3.55;;
42036;SDS011;75222;52.004;5.908;2024-02-26T07:29:28;5.10;;;3.33;;
42036;SDS011;75222;52.004;5.908;2024-02-26T07:31:53;6.70;;;4.43;;
42036;SDS011;75222;52.004;5.908;2024-02-26T07:34:19;6.65;;;4.40;;
42036;SDS011;75222;52.004;5.908;2024-02-26T07:36:44;6.72;;;4.60;;
42036;SDS011;75222;52.004;5.908;2024-02-26T07:39:10;6.70;;;4.28;;
42036;SDS011;75222;52.004;5.908;2024-02-26T07:41:36;6.95;;;4.45;;
42036;SDS011;75222;52.004;5.908;2024-02-26T07:44:03;6.90;;;4.35;;
42036;SDS011;75222;52.004;5.908;2024-02-26T07:46:28;6.07;;;4.32;;
42036;SDS011;75222;52.004;5.908;2024-02-26T07:48:54;8.00;;;4.63;;
42036;SDS011;75222;52.004;5.908;2024-02-26T07:51:20;7.72;;;5.20;;
42036;SDS011;75222;52.004;5.908;2024-02-26T07:53:45;7.07;;;4.68;;
42036;SDS011;75222;52.004;5.908;2024-02-26T07:56:11;8.13;;;5.00;;
42036;SDS011;75222;52.004;5.908;2024-02-26T07:58:36;8.50;;;5.75;;
42036;SDS011;75222;52.004;5.908;2024-02-26T08:01:02;8.63;;;5.30;;
42036;SDS011;75222;52.004;5.908;2024-02-26T08:03:27;9.05;;;5.47;;
42036;SDS011;75222;52.004;5.908;2024-02-26T08:05:53;8.57;;;5.65;;
42036;SDS011;75222;52.004;5.908;2024-02-26T08:08:19;9.40;;;5.15;;
42036;SDS011;75222;52.004;5.908;2024-02-26T08:10:45;9.45;;;5.63;;
42036;SDS011;75222;52.004;5.908;2024-02-26T08:13:10;8.45;;;5.25;;
42036;SDS011;75222;52.004;5.908;2024-02-26T08:15:36;8.60;;;5.38;;
42036;SDS011;75222;52.004;5.908;2024-02-26T08:18:05;11.65;;;6.40;;
42036;SDS011;75222;52.004;5.908;2024-02-26T08:20:30;8.95;;;5.53;;
42036;SDS011;75222;52.004;5.908;2024-02-26T08:22:56;9.77;;;5.40;;
42036;SDS011;75222;52.004;5.908;2024-02-26T08:25:22;9.75;;;5.70;;
42036;SDS011;75222;52.004;5.908;2024-02-26T08:27:49;9.05;;;5.20;;
42036;SDS011;75222;52.004;5.908;2024-02-26T08:30:15;8.25;;;5.50;;
42036;SDS011;75222;52.004;5.908;2024-02-26T08:32:45;8.68;;;5.43;;
42036;SDS011;75222;52.004;5.908;2024-02-26T08:35:11;8.13;;;4.82;;
42036;SDS011;75222;52.004;5.908;2024-02-26T08:37:36;7.15;;;4.45;;
42036;SDS011;75222;52.004;5.908;2024-02-26T08:40:02;8.68;;;5.30;;
42036;SDS011;75222;52.004;5.908;2024-02-26T08:42:29;8.88;;;5.32;;
42036;SDS011;75222;52.004;5.908;2024-02-26T08:44:54;9.32;;;4.95;;
42036;SDS011;75222;52.004;5.908;2024-02-26T08:47:20;12.05;;;6.72;;
42036;SDS011;75222;52.004;5.908;2024-02-26T08:49:46;10.98;;;6.38;;
42036;SDS011;75222;52.004;5.908;2024-02-26T08:52:11;9.85;;;5.70;;
42036;SDS011;75222;52.004;5.908;2024-02-26T08:54:37;9.15;;;5.40;;
42036;SDS011;75222;52.004;5.908;2024-02-26T08:57:03;12.05;;;6.15;;
42036;SDS011;75222;52.004;5.908;2024-02-26T08:59:28;10.60;;;6.15;;
42036;SDS011;75222;52.004;5.908;2024-02-26T09:01:54;8.82;;;5.38;;
42036;SDS011;75222;52.004;5.908;2024-02-26T09:04:20;11.77;;;6.03;;
42036;SDS011;75222;52.004;5.908;2024-02-26T09:06:46;9.05;;;5.13;;
42036;SDS011;75222;52.004;5.908;2024-02-26T09:09:12;11.07;;;6.43;;
42036;SDS011;75222;52.004;5.908;2024-02-26T09:11:37;11.05;;;6.43;;
42036;SDS011;75222;52.004;5.908;2024-02-26T09:14:03;8.98;;;5.43;;
42036;SDS011;75222;52.004;5.908;2024-02-26T09:16:29;9.52;;;5.38;;
42036;SDS011;75222;52.004;5.908;2024-02-26T09:18:55;9.52;;;5.35;;
42036;SDS011;75222;52.004;5.908;2024-02-26T09:21:21;11.40;;;6.50;;
42036;SDS011;75222;52.004;5.908;2024-02-26T09:23:51;10.65;;;6.25;;
42036;SDS011;75222;52.004;5.908;2024-02-26T09:26:17;11.98;;;6.80;;
42036;SDS011;75222;52.004;5.908;2024-02-26T09:28:44;11.10;;;6.07;;
42036;SDS011;75222;52.004;5.908;2024-02-26T09:31:09;8.70;;;5.50;;
42036;SDS011;75222;52.004;5.908;2024-02-26T09:33:35;10.10;;;5.85;;
42036;SDS011;75222;52.004;5.908;2024-02-26T09:36:00;9.80;;;6.03;;
42036;SDS011;75222;52.004;5.908;2024-02-26T09:38:26;9.80;;;5.97;;
42036;SDS011;75222;52.004;5.908;2024-02-26T09:40:52;9.75;;;5.80;;
42036;SDS011;75222;52.004;5.908;2024-02-26T09:43:20;9.05;;;5.65;;
42036;SDS011;75222;52.004;5.908;2024-02-26T09:45:49;12.02;;;6.03;;
42036;SDS011;75222;52.004;5.908;2024-02-26T09:48:16;10.52;;;5.85;;
42036;SDS011;75222;52.004;5.908;2024-02-26T09:50:42;12.63;;;6.75;;
42036;SDS011;75222;52.004;5.908;2024-02-26T09:53:09;9.07;;;5.65;;
42036;SDS011;75222;52.004;5.908;2024-02-26T09:55:37;12.50;;;6.55;;
42036;SDS011;75222;52.004;5.908;2024-02-26T09:58:03;11.20;;;6.55;;
42036;SDS011;75222;52.004;5.908;2024-02-26T10:00:30;9.93;;;5.93;;
42036;SDS011;75222;52.004;5.908;2024-02-26T10:03:01;9.27;;;5.22;;
42036;SDS011;75222;52.004;5.908;2024-02-26T10:05:29;10.00;;;5.85;;
42036;SDS011;75222;52.004;5.908;2024-02-26T10:08:00;9.00;;;5.38;;
42036;SDS011;75222;52.004;5.908;2024-02-26T10:10:28;8.77;;;5.32;;
42036;SDS011;75222;52.004;5.908;2024-02-26T10:12:54;9.10;;;5.38;;
42036;SDS011;75222;52.004;5.908;2024-02-26T10:15:20;8.95;;;5.30;;
42036;SDS011;75222;52.004;5.908;2024-02-26T10:17:45;10.00;;;5.53;;
42036;SDS011;75222;52.004;5.908;2024-02-26T10:22:46;8.20;;;4.68;;
42036;SDS011;75222;52.004;5.908;2024-02-26T10:25:12;10.80;;;5.88;;
42036;SDS011;75222;52.004;5.908;2024-02-26T10:27:40;9.38;;;4.82;;
42036;SDS011;75222;52.004;5.908;2024-02-26T10:30:20;7.93;;;4.97;;
42036;SDS011;75222;52.004;5.908;2024-02-26T10:32:47;8.00;;;4.97;;
42036;SDS011;75222;52.004;5.908;2024-02-26T10:35:14;8.25;;;4.93;;
42036;SDS011;75222;52.004;5.908;2024-02-26T10:37:40;7.10;;;4.40;;
42036;SDS011;75222;52.004;5.908;2024-02-26T10:40:13;8.10;;;4.70;;
42036;SDS011;75222;52.004;5.908;2024-02-26T10:42:39;8.88;;;5.10;;
42036;SDS011;75222;52.004;5.908;2024-02-26T10:45:06;9.15;;;5.22;;
42036;SDS011;75222;52.004;5.908;2024-02-26T10:47:34;8.98;;;5.10;;
42036;SDS011;75222;52.004;5.908;2024-02-26T10:50:01;8.88;;;5.00;;
42036;SDS011;75222;52.004;5.908;2024-02-26T10:52:28;7.97;;;5.20;;
42036;SDS011;75222;52.004;5.908;2024-02-26T10:54:58;8.48;;;5.15;;
42036;SDS011;75222;52.004;5.908;2024-02-26T10:57:28;9.48;;;5.43;;
42036;SDS011;75222;52.004;5.908;2024-02-26T11:00:03;8.73;;;5.28;;
42036;SDS011;75222;52.004;5.908;2024-02-26T11:02:33;8.80;;;5.10;;
42036;SDS011;75222;52.004;5.908;2024-02-26T11:05:03;8.43;;;5.20;;
42036;SDS011;75222;52.004;5.908;2024-02-26T11:07:30;8.05;;;4.72;;
42036;SDS011;75222;52.004;5.908;2024-02-26T11:09:58;8.52;;;5.30;;
42036;SDS011;75222;52.004;5.908;2024-02-26T11:12:25;8.10;;;5.22;;
42036;SDS011;75222;52.004;5.908;2024-02-26T11:14:53;10.30;;;5.65;;
42036;SDS011;75222;52.004;5.908;2024-02-26T11:17:21;9.80;;;5.15;;
42036;SDS011;75222;52.004;5.908;2024-02-26T11:19:49;9.73;;;5.43;;
42036;SDS011;75222;52.004;5.908;2024-02-26T11:22:16;8.38;;;5.15;;
42036;SDS011;75222;52.004;5.908;2024-02-26T11:24:42;6.22;;;3.95;;
42036;SDS011;75222;52.004;5.908;2024-02-26T11:27:08;8.50;;;5.13;;
42036;SDS011;75222;52.004;5.908;2024-02-26T11:29:39;8.63;;;4.88;;
42036;SDS011;75222;52.004;5.908;2024-02-26T11:32:09;9.40;;;5.78;;
42036;SDS011;75222;52.004;5.908;2024-02-26T11:34:35;7.90;;;4.50;;
42036;SDS011;75222;52.004;5.908;2024-02-26T11:39:37;7.80;;;4.47;;
42036;SDS011;75222;52.004;5.908;2024-02-26T11:42:05;8.40;;;5.13;;
42036;SDS011;75222;52.004;5.908;2024-02-26T11:44:32;7.93;;;4.70;;
42036;SDS011;75222;52.004;5.908;2024-02-26T11:46:58;7.45;;;4.60;;
42036;SDS011;75222;52.004;5.908;2024-02-26T11:51:54;9.68;;;5.93;;
42036;SDS011;75222;52.004;5.908;2024-02-26T12:02:38;7.30;;;4.22;;
42036;SDS011;75222;52.004;5.908;2024-02-26T12:07:49;7.45;;;4.45;;
42036;SDS011;75222;52.004;5.908;2024-02-26T12:13:00;6.85;;;4.00;;
42036;SDS011;75222;52.004;5.908;2024-02-26T12:15:33;6.40;;;3.85;;
42036;SDS011;75222;52.004;5.908;2024-02-26T12:18:03;8.52;;;4.38;;
42036;SDS011;75222;52.004;5.908;2024-02-26T12:20:30;6.00;;;3.67;;
42036;SDS011;75222;52.004;5.908;2024-02-26T12:22:56;5.68;;;3.60;;
42036;SDS011;75222;52.004;5.908;2024-02-26T12:25:27;5.70;;;3.90;;
42036;SDS011;75222;52.004;5.908;2024-02-26T12:27:54;5.35;;;3.25;;
42036;SDS011;75222;52.004;5.908;2024-02-26T12:30:20;6.05;;;3.45;;
42036;SDS011;75222;52.004;5.908;2024-02-26T12:32:47;6.32;;;4.00;;
42036;SDS011;75222;52.004;5.908;2024-02-26T12:35:14;7.40;;;4.18;;
42036;SDS011;75222;52.004;5.908;2024-02-26T12:37:41;7.00;;;4.22;;
42036;SDS011;75222;52.004;5.908;2024-02-26T12:40:10;6.00;;;3.72;;
42036;SDS011;75222;52.004;5.908;2024-02-26T12:42:37;6.82;;;4.32;;
42036;SDS011;75222;52.004;5.908;2024-02-26T12:45:06;6.40;;;3.90;;
42036;SDS011;75222;52.004;5.908;2024-02-26T12:47:41;4.93;;;3.30;;
42036;SDS011;75222;52.004;5.908;2024-02-26T12:50:08;5.35;;;3.25;;
42036;SDS011;75222;52.004;5.908;2024-02-26T12:52:35;6.57;;;4.15;;
42036;SDS011;75222;52.004;5.908;2024-02-26T12:55:02;5.13;;;3.03;;
42036;SDS011;75222;52.004;5.908;2024-02-26T12:57:32;4.90;;;3.42;;
42036;SDS011;75222;52.004;5.908;2024-02-26T13:00:01;4.57;;;3.40;;
42036;SDS011;75222;52.004;5.908;2024-02-26T13:02:29;5.72;;;3.63;;
42036;SDS011;75222;52.004;5.908;2024-02-26T13:04:55;5.72;;;3.65;;
42036;SDS011;75222;52.004;5.908;2024-02-26T13:07:22;4.93;;;3.40;;
42036;SDS011;75222;52.004;5.908;2024-02-26T13:09:47;6.85;;;3.78;;
42036;SDS011;75222;52.004;5.908;2024-02-26T13:12:13;5.70;;;3.50;;
42036;SDS011;75222;52.004;5.908;2024-02-26T13:14:39;5.55;;;3.70;;
42036;SDS011;75222;52.004;5.908;2024-02-26T13:17:05;6.43;;;4.32;;
42036;SDS011;75222;52.004;5.908;2024-02-26T13:19:31;6.60;;;4.05;;
42036;SDS011;75222;52.004;5.908;2024-02-26T13:22:03;5.53;;;3.72;;
42036;SDS011;75222;52.004;5.908;2024-02-26T13:24:29;8.10;;;4.28;;
42036;SDS011;75222;52.004;5.908;2024-02-26T13:26:56;6.35;;;4.00;;
42036;SDS011;75222;52.004;5.908;2024-02-26T13:29:21;7.40;;;4.47;;
42036;SDS011;75222;52.004;5.908;2024-02-26T13:31:47;5.72;;;3.72;;
42036;SDS011;75222;52.004;5.908;2024-02-26T13:34:25;6.57;;;3.58;;
42036;SDS011;75222;52.004;5.908;2024-02-26T13:36:52;5.70;;;3.80;;
42036;SDS011;75222;52.004;5.908;2024-02-26T13:39:22;5.40;;;3.38;;
42036;SDS011;75222;52.004;5.908;2024-02-26T13:41:49;4.82;;;3.17;;
42036;SDS011;75222;52.004;5.908;2024-02-26T13:44:15;5.72;;;3.50;;
42036;SDS011;75222;52.004;5.908;2024-02-26T13:46:40;5.80;;;3.80;;
42036;SDS011;75222;52.004;5.908;2024-02-26T13:49:08;5.88;;;3.55;;
42036;SDS011;75222;52.004;5.908;2024-02-26T13:51:34;5.10;;;3.42;;
42036;SDS011;75222;52.004;5.908;2024-02-26T13:54:01;4.95;;;3.30;;
42036;SDS011;75222;52.004;5.908;2024-02-26T13:56:27;6.25;;;3.92;;
42036;SDS011;75222;52.004;5.908;2024-02-26T13:58:52;6.03;;;4.07;;
42036;SDS011;75222;52.004;5.908;2024-02-26T14:01:18;6.00;;;3.45;;
42036;SDS011;75222;52.004;5.908;2024-02-26T14:03:44;6.05;;;3.90;;
42036;SDS011;75222;52.004;5.908;2024-02-26T14:06:10;6.18;;;4.05;;
42036;SDS011;75222;52.004;5.908;2024-02-26T14:08:35;7.18;;;4.65;;
42036;SDS011;75222;52.004;5.908;2024-02-26T14:11:01;7.00;;;3.92;;
42036;SDS011;75222;52.004;5.908;2024-02-26T14:13:26;5.72;;;3.70;;
42036;SDS011;75222;52.004;5.908;2024-02-26T14:15:52;5.28;;;3.45;;
42036;SDS011;75222;52.004;5.908;2024-02-26T14:18:18;5.00;;;3.03;;
42036;SDS011;75222;52.004;5.908;2024-02-26T14:20:43;6.10;;;3.63;;
42036;SDS011;75222;52.004;5.908;2024-02-26T14:23:09;5.72;;;3.60;;
42036;SDS011;75222;52.004;5.908;2024-02-26T14:25:35;5.25;;;3.42;;
42036;SDS011;75222;52.004;5.908;2024-02-26T14:28:01;6.13;;;3.83;;
42036;SDS011;75222;52.004;5.908;2024-02-26T14:30:27;7.13;;;3.80;;
42036;SDS011;75222;52.004;5.908;2024-02-26T14:32:53;6.28;;;3.95;;
42036;SDS011;75222;52.004;5.908;2024-02-26T14:35:19;5.75;;;3.55;;
42036;SDS011;75222;52.004;5.908;2024-02-26T14:37:45;5.40;;;3.28;;
42036;SDS011;75222;52.004;5.908;2024-02-26T14:40:14;4.78;;;2.85;;
42036;SDS011;75222;52.004;5.908;2024-02-26T14:42:40;4.32;;;3.10;;
42036;SDS011;75222;52.004;5.908;2024-02-26T14:45:06;5.75;;;3.47;;
42036;SDS011;75222;52.004;5.908;2024-02-26T14:47:34;5.88;;;3.63;;
42036;SDS011;75222;52.004;5.908;2024-02-26T14:50:00;5.43;;;3.42;;
42036;SDS011;75222;52.004;5.908;2024-02-26T14:52:26;5.65;;;3.70;;
42036;SDS011;75222;52.004;5.908;2024-02-26T14:54:52;5.40;;;3.40;;
42036;SDS011;75222;52.004;5.908;2024-02-26T14:57:18;5.38;;;3.30;;
42036;SDS011;75222;52.004;5.908;2024-02-26T14:59:43;5.75;;;3.72;;
42036;SDS011;75222;52.004;5.908;2024-02-26T15:02:09;5.32;;;3.25;;
42036;SDS011;75222;52.004;5.908;2024-02-26T15:04:38;4.82;;;3.13;;